createdAt,value
2019-01-17T00:00:55.023Z,90.63
2019-01-17T00:03:25.131Z,85.90
2019-01-17T00:06:01.185Z,99.00
2019-01-17T00:08:47.528Z,88.00
2019-01-17T00:11:23.393Z,101.17
2019-01-17T00:13:53.700Z,83.97
2019-01-17T00:16:23.791Z,88.47
2019-01-17T00:18:54.134Z,91.23
2019-01-17T00:21:36.030Z,77.93
2019-01-17T00:24:18.006Z,85.27
2019-01-17T00:26:50.735Z,74.70
2019-01-17T00:29:20.880Z,99.60
2019-01-17T00:31:51.192Z,79.83
2019-01-17T00:34:21.252Z,83.40
2019-01-17T00:36:54.340Z,85.57
2019-01-17T00:39:27.176Z,90.63
2019-01-17T00:42:06.292Z,95.37
2019-01-17T00:44:36.410Z,93.20
2019-01-17T00:47:12.460Z,89.57
2019-01-17T00:50:00.374Z,90.13
2019-01-17T00:52:46.496Z,102.33
2019-01-17T00:55:19.467Z,76.37
2019-01-17T00:57:49.540Z,95.10
2019-01-17T01:00:31.144Z,93.30
2019-01-17T01:03:17.470Z,104.57
2019-01-17T01:05:50.237Z,99.77
2019-01-17T01:08:23.075Z,105.63
2019-01-17T01:10:58.930Z,98.73
2019-01-17T01:13:31.975Z,110.30
2019-01-17T01:16:18.501Z,94.13
2019-01-17T01:18:48.573Z,100.50
2019-01-17T01:21:18.644Z,126.67
2019-01-17T01:23:48.715Z,97.07
2019-01-17T01:26:18.776Z,92.80
2019-01-17T01:29:04.838Z,79.17
2019-01-17T01:31:37.796Z,78.43
2019-01-17T01:34:16.865Z,70.47
2019-01-17T01:36:52.644Z,97.90
2019-01-17T01:39:28.209Z,63.20
2019-01-17T01:41:58.292Z,78.23
2019-01-17T01:44:31.064Z,104.23
2019-01-17T01:47:18.684Z,79.67
2019-01-17T01:49:51.424Z,76.77
2019-01-17T01:52:30.537Z,60.77
2019-01-17T01:54:58.952Z,85.87
2019-01-17T01:57:27.386Z,117.13
2019-01-17T01:59:55.826Z,101.80
2019-01-17T02:02:24.256Z,87.70
2019-01-17T02:04:52.688Z,66.73
2019-01-17T02:07:21.089Z,69.07
2019-01-17T02:09:49.523Z,126.27
2019-01-17T02:12:17.924Z,83.20
2019-01-17T02:14:46.433Z,49.87
2019-01-17T02:17:14.832Z,53.93
2019-01-17T02:19:43.268Z,59.90
2019-01-17T02:22:11.679Z,63.40
2019-01-17T02:24:40.123Z,52.47
2019-01-17T02:27:08.527Z,84.77
2019-01-17T02:29:36.955Z,56.27
2019-01-17T02:32:05.365Z,48.60
2019-01-17T02:34:34.036Z,53.63
2019-01-17T02:37:02.470Z,41.23
2019-01-17T02:39:30.895Z,53.80
2019-01-17T02:41:59.368Z,35.40
2019-01-17T02:44:27.807Z,49.63
2019-01-17T02:46:56.208Z,31.47
2019-01-17T02:49:24.652Z,39.90
2019-01-17T02:51:53.051Z,42.83
2019-01-17T02:54:21.492Z,44.00
2019-01-17T02:56:49.912Z,32.93
2019-01-17T02:59:18.352Z,36.77
2019-01-17T03:01:46.768Z,31.90
2019-01-17T03:04:15.192Z,39.10
2019-01-17T03:06:43.628Z,34.20
2019-01-17T03:09:12.030Z,27.37
2019-01-17T03:11:40.559Z,36.20
2019-01-17T03:14:08.957Z,34.97
2019-01-17T03:16:37.403Z,32.83
2019-01-17T03:19:05.886Z,24.40
2019-01-17T03:21:34.296Z,23.50
2019-01-17T03:24:02.724Z,21.27
2019-01-17T03:26:31.121Z,21.90
2019-01-17T03:28:59.551Z,29.97
2019-01-17T03:31:27.952Z,23.87
2019-01-17T03:33:56.390Z,22.00
2019-01-17T03:36:24.805Z,17.40
2019-01-17T03:38:53.240Z,14.60
2019-01-17T03:41:21.672Z,17.63
2019-01-17T03:43:50.075Z,15.23
2019-01-17T03:46:18.500Z,20.27
2019-01-17T03:48:46.896Z,13.13
2019-01-17T03:51:15.384Z,19.27
2019-01-17T03:53:43.784Z,11.20
2019-01-17T03:56:12.216Z,13.37
2019-01-17T03:58:40.622Z,15.60
2019-01-17T04:01:09.057Z,12.87
2019-01-17T04:03:37.472Z,10.23
2019-01-17T04:06:05.957Z,11.90
2019-01-17T04:08:34.664Z,9.90
2019-01-17T04:11:03.168Z,10.67
2019-01-17T04:13:31.583Z,15.40
2019-01-17T04:15:59.999Z,14.23
2019-01-17T04:18:28.460Z,13.47
2019-01-17T04:20:56.885Z,12.70
2019-01-17T04:23:25.308Z,10.17
2019-01-17T04:25:53.703Z,13.13
2019-01-17T04:28:22.120Z,8.00
2019-01-17T04:30:50.628Z,13.47
2019-01-17T04:33:19.034Z,12.07
2019-01-17T04:35:47.428Z,11.83
2019-01-17T04:38:15.864Z,10.10
2019-01-17T04:40:44.276Z,11.33
2019-01-17T04:43:12.713Z,10.40
2019-01-17T04:45:41.108Z,10.37
2019-01-17T04:48:09.539Z,11.27
2019-01-17T04:50:37.955Z,12.43
2019-01-17T04:53:06.365Z,12.70
2019-01-17T04:55:34.775Z,12.53
2019-01-17T04:58:03.243Z,15.27
2019-01-17T05:00:31.713Z,13.47
2019-01-17T05:03:00.140Z,18.00
2019-01-17T05:05:28.609Z,18.57
2019-01-17T05:07:57.015Z,9.53
2019-01-17T05:10:25.447Z,12.63
2019-01-17T05:12:53.870Z,13.90
2019-01-17T05:15:22.556Z,11.90
2019-01-17T05:17:50.956Z,16.83
2019-01-17T05:20:19.628Z,17.90
2019-01-17T05:22:48.044Z,14.17
2019-01-17T05:25:16.542Z,18.10
2019-01-17T05:27:45.028Z,17.27
2019-01-17T05:30:17.820Z,22.13
2019-01-17T05:32:46.308Z,15.13
2019-01-17T05:35:14.774Z,14.20
2019-01-17T05:37:43.433Z,16.60
2019-01-17T05:40:14.744Z,20.27
2019-01-17T05:42:43.202Z,15.07
2019-01-17T05:45:11.763Z,21.27
2019-01-17T05:47:40.421Z,20.03
2019-01-17T05:50:13.808Z,20.10
2019-01-17T05:52:42.295Z,19.57
2019-01-17T05:55:10.798Z,21.20
2019-01-17T05:57:39.215Z,24.53
2019-01-17T06:00:13.358Z,19.80
2019-01-17T06:02:41.772Z,17.73
2019-01-17T06:05:10.428Z,20.27
2019-01-17T06:07:38.849Z,22.07
2019-01-17T06:10:09.998Z,22.83
2019-01-17T06:12:38.437Z,22.53
2019-01-17T06:15:09.684Z,21.53
2019-01-17T06:17:38.162Z,17.87
2019-01-17T06:20:09.887Z,18.57
2019-01-17T06:22:38.278Z,21.40
2019-01-17T06:25:06.836Z,24.97
2019-01-17T06:27:35.253Z,18.63
2019-01-17T06:30:04.715Z,20.97
2019-01-17T06:32:33.126Z,17.00
2019-01-17T06:35:01.580Z,19.03
2019-01-17T06:37:30.005Z,22.20
2019-01-17T06:39:58.463Z,16.90
2019-01-17T06:42:26.880Z,26.17
2019-01-17T06:44:55.370Z,23.27
2019-01-17T06:47:24.027Z,18.77
2019-01-17T06:49:52.436Z,25.20
2019-01-17T06:52:20.867Z,17.90
2019-01-17T06:54:49.281Z,17.13
2019-01-17T06:57:17.680Z,17.83
2019-01-17T06:59:46.108Z,21.33
2019-01-17T07:02:14.511Z,17.90
2019-01-17T07:04:43.095Z,20.23
2019-01-17T07:07:11.560Z,23.83
2019-01-17T07:09:39.956Z,22.90
2019-01-17T07:12:08.375Z,23.40
2019-01-17T07:14:36.781Z,23.27
2019-01-17T07:17:05.219Z,26.93
2019-01-17T07:19:33.620Z,19.73
2019-01-17T07:22:02.040Z,24.80
2019-01-17T07:24:30.459Z,20.83
2019-01-17T07:26:58.872Z,29.87
2019-01-17T07:29:27.444Z,25.33
2019-01-17T07:31:56.161Z,25.17
2019-01-17T07:34:24.589Z,26.60
2019-01-17T07:36:53.024Z,17.53
2019-01-17T07:39:21.456Z,22.60
2019-01-17T07:41:49.853Z,24.70
2019-01-17T07:44:18.348Z,18.17
2019-01-17T07:46:46.831Z,24.00
2019-01-17T07:49:15.283Z,21.10
2019-01-17T07:51:43.736Z,24.37
2019-01-17T07:54:12.419Z,21.37
2019-01-17T07:56:40.832Z,29.97
2019-01-17T07:59:09.257Z,24.47
2019-01-17T08:01:37.687Z,26.27
2019-01-17T08:04:06.100Z,22.20
2019-01-17T08:06:34.528Z,25.73
2019-01-17T08:09:04.576Z,16.83
2019-01-17T08:11:32.984Z,19.20
2019-01-17T08:14:01.420Z,20.60
2019-01-17T08:16:29.857Z,22.40
2019-01-17T08:18:58.313Z,18.73
2019-01-17T08:21:26.769Z,18.13
2019-01-17T08:23:55.208Z,17.57
2019-01-17T08:26:23.652Z,19.60
2019-01-17T08:28:52.084Z,22.30
2019-01-17T08:31:20.515Z,18.43
2019-01-17T08:33:48.927Z,22.77
2019-01-17T08:36:17.349Z,22.73
2019-01-17T08:38:45.763Z,20.43
2019-01-17T08:41:14.210Z,17.53
2019-01-17T08:43:42.707Z,20.20
2019-01-17T08:46:11.108Z,22.10
2019-01-17T08:48:39.551Z,18.87
2019-01-17T08:51:07.956Z,22.23
2019-01-17T08:53:36.384Z,24.47
2019-01-17T08:56:05.053Z,24.93
2019-01-17T08:58:33.495Z,19.73
2019-01-17T09:01:02.182Z,30.90
2019-01-17T09:03:30.577Z,23.30
2019-01-17T09:05:59.016Z,19.30
2019-01-17T09:08:27.443Z,19.17
2019-01-17T09:10:55.855Z,22.63
2019-01-17T09:13:24.381Z,16.43
2019-01-17T09:15:52.860Z,21.53
2019-01-17T09:18:21.276Z,20.37
2019-01-17T09:20:49.942Z,24.17
2019-01-17T09:23:18.444Z,20.07
2019-01-17T09:25:46.923Z,23.27
2019-01-17T09:28:15.328Z,20.13
2019-01-17T09:30:43.760Z,16.70
2019-01-17T09:33:12.259Z,20.77
2019-01-17T09:35:40.948Z,22.80
2019-01-17T09:38:09.352Z,19.13
2019-01-17T09:40:37.779Z,16.90
2019-01-17T09:43:06.202Z,19.97
2019-01-17T09:45:34.640Z,20.97
2019-01-17T09:48:03.070Z,24.53
2019-01-17T09:50:31.508Z,19.87
2019-01-17T09:53:00.024Z,15.83
2019-01-17T09:55:28.425Z,16.03
2019-01-17T09:57:56.848Z,21.60
2019-01-17T10:00:27.195Z,16.90
2019-01-17T10:02:55.711Z,23.00
2019-01-17T10:05:24.255Z,18.20
2019-01-17T10:07:53.032Z,15.93
2019-01-17T10:10:23.960Z,14.80
2019-01-17T10:12:52.922Z,18.90
2019-01-17T10:15:33.299Z,22.77
2019-01-17T10:18:19.717Z,16.60
2019-01-17T10:21:06.032Z,15.40
2019-01-17T10:24:08.700Z,19.43
2019-01-17T10:26:42.954Z,18.77
2019-01-17T10:29:29.115Z,17.03
2019-01-17T10:32:00.617Z,18.00
2019-01-17T10:34:48.297Z,14.80
2019-01-17T10:37:46.613Z,16.07
2019-01-17T10:40:51.340Z,16.17
2019-01-17T10:43:48.115Z,14.63
2019-01-17T10:46:28.214Z,18.83
2019-01-17T10:49:23.411Z,17.37
2019-01-17T10:51:57.819Z,20.57
2019-01-17T10:54:35.388Z,16.73
2019-01-17T10:57:21.928Z,15.10
2019-01-17T10:59:53.423Z,13.50
2019-01-17T11:02:41.427Z,11.53
2019-01-17T11:05:20.245Z,13.60
2019-01-17T11:08:03.561Z,17.17
2019-01-17T11:11:10.767Z,14.90
2019-01-17T11:13:51.163Z,15.77
2019-01-17T11:16:28.411Z,18.80
2019-01-17T11:19:11.782Z,19.87
2019-01-17T11:21:49.251Z,15.50
2019-01-17T11:24:32.728Z,14.47
2019-01-17T11:27:18.415Z,15.80
2019-01-17T11:29:49.901Z,12.60
2019-01-17T11:32:37.655Z,13.30
2019-01-17T11:35:09.180Z,17.40
2019-01-17T11:37:46.415Z,14.50
2019-01-17T11:40:34.405Z,10.73
2019-01-17T11:43:11.385Z,15.13
2019-01-17T11:45:51.553Z,11.83
2019-01-17T11:48:31.697Z,14.23
2019-01-17T11:51:03.211Z,23.00
2019-01-17T11:53:43.551Z,15.70
2019-01-17T11:56:29.971Z,14.67
2019-01-17T11:59:09.784Z,10.70
2019-01-17T12:01:56.311Z,10.27
2019-01-17T12:04:34.280Z,16.50
2019-01-17T12:07:08.252Z,12.30
2019-01-17T12:09:38.116Z,19.73
2019-01-17T12:12:06.664Z,18.93
2019-01-17T12:14:35.102Z,15.63
2019-01-17T12:17:03.553Z,19.20
2019-01-17T12:19:32.084Z,12.20
2019-01-17T12:22:00.630Z,14.70
2019-01-17T12:24:29.029Z,13.73
2019-01-17T12:26:57.464Z,16.67
2019-01-17T12:29:25.889Z,14.03
2019-01-17T12:31:54.316Z,15.57
2019-01-17T12:34:22.765Z,15.87
2019-01-17T12:36:51.336Z,17.07
2019-01-17T12:39:19.772Z,17.50
2019-01-17T12:41:48.256Z,14.47
2019-01-17T12:44:16.684Z,10.90
2019-01-17T12:46:45.098Z,13.93
2019-01-17T12:49:13.588Z,15.03
2019-01-17T12:51:42.352Z,12.40
2019-01-17T12:54:10.793Z,13.47
2019-01-17T12:56:39.194Z,15.43
2019-01-17T12:59:07.887Z,12.27
2019-01-17T13:01:36.317Z,9.43
2019-01-17T13:04:05.055Z,10.23
2019-01-17T13:06:33.587Z,6.63
2019-01-17T13:09:02.003Z,6.53
2019-01-17T13:11:30.425Z,6.50
2019-01-17T13:13:59.065Z,9.77
2019-01-17T13:16:27.553Z,10.47
2019-01-17T13:18:55.976Z,6.67
2019-01-17T13:21:24.404Z,6.90
2019-01-17T13:23:52.836Z,6.63
2019-01-17T13:26:21.337Z,7.43
2019-01-17T13:28:49.771Z,8.17
2019-01-17T13:31:18.165Z,8.93
2019-01-17T13:33:46.573Z,7.30
2019-01-17T13:36:15.013Z,5.40
2019-01-17T13:38:43.416Z,5.33
2019-01-17T13:41:11.833Z,11.77
2019-01-17T13:43:40.253Z,10.23
2019-01-17T13:46:08.715Z,7.53
2019-01-17T13:48:37.195Z,6.33
2019-01-17T13:51:05.632Z,7.37
2019-01-17T13:53:34.047Z,5.23
2019-01-17T13:56:02.495Z,6.73
2019-01-17T13:58:30.900Z,8.63
2019-01-17T14:00:59.296Z,9.10
2019-01-17T14:03:27.789Z,10.93
2019-01-17T14:05:56.211Z,9.23
2019-01-17T14:08:24.611Z,14.40
2019-01-17T14:10:53.098Z,5.90
2019-01-17T14:13:21.492Z,12.10
2019-01-17T14:15:49.918Z,9.67
2019-01-17T14:18:18.423Z,10.07
2019-01-17T14:20:46.921Z,10.27
2019-01-17T14:23:15.318Z,10.00
2019-01-17T14:25:43.750Z,10.70
2019-01-17T14:28:12.180Z,7.47
2019-01-17T14:30:40.887Z,10.50
2019-01-17T14:33:10.475Z,8.13
2019-01-17T14:35:38.881Z,11.13
2019-01-17T14:38:07.328Z,12.43
2019-01-17T14:40:35.728Z,13.97
2019-01-17T14:43:04.247Z,13.53
2019-01-17T14:45:32.665Z,10.20
2019-01-17T14:48:01.108Z,9.33
2019-01-17T14:50:30.940Z,10.67
2019-01-17T14:52:59.379Z,13.63
2019-01-17T14:55:27.785Z,8.03
2019-01-17T14:57:56.307Z,11.70
2019-01-17T15:00:27.426Z,14.73
2019-01-17T15:02:55.847Z,13.03
2019-01-17T15:05:24.332Z,11.57
2019-01-17T15:07:52.864Z,12.23
2019-01-17T15:10:30.142Z,8.87
2019-01-17T15:12:58.694Z,9.40
2019-01-17T15:15:27.096Z,8.67
2019-01-17T15:17:55.524Z,9.00
2019-01-17T15:20:23.927Z,9.43
2019-01-17T15:22:52.935Z,11.57
2019-01-17T15:25:21.333Z,14.30
2019-01-17T15:27:49.764Z,11.20
2019-01-17T15:30:20.192Z,13.27
2019-01-17T15:32:49.058Z,6.63
2019-01-17T15:35:19.007Z,12.80
2019-01-17T15:37:47.522Z,11.20
2019-01-17T15:40:29.560Z,7.60
2019-01-17T15:42:57.975Z,12.73
2019-01-17T15:45:26.440Z,11.50
2019-01-17T15:47:54.931Z,7.90
2019-01-17T15:50:23.332Z,9.03
2019-01-17T15:52:51.748Z,4.57
2019-01-17T15:55:20.172Z,4.80
2019-01-17T15:57:48.564Z,7.27
2019-01-17T16:00:30.248Z,10.90
2019-01-17T16:02:58.655Z,7.30
2019-01-17T16:05:27.138Z,8.67
2019-01-17T16:07:55.531Z,9.80
2019-01-17T16:10:24.035Z,10.50
2019-01-17T16:12:52.452Z,9.73
2019-01-17T16:15:23.107Z,3.50
2019-01-17T16:17:51.574Z,7.20
2019-01-17T16:20:19.972Z,6.90
2019-01-17T16:22:48.536Z,8.17
2019-01-17T16:25:16.936Z,4.53
2019-01-17T16:27:45.391Z,8.10
2019-01-17T16:30:25.471Z,5.60
2019-01-17T16:32:53.911Z,4.53
2019-01-17T16:35:22.316Z,9.87
2019-01-17T16:37:50.860Z,5.07
2019-01-17T16:40:19.280Z,9.13
2019-01-17T16:42:47.775Z,13.07
2019-01-17T16:45:18.666Z,8.57
2019-01-17T16:47:47.073Z,4.13
2019-01-17T16:50:17.869Z,7.13
2019-01-17T16:52:46.281Z,7.43
2019-01-17T16:55:15.270Z,11.00
2019-01-17T16:57:48.895Z,6.17
2019-01-17T17:00:19.742Z,12.23
2019-01-17T17:02:48.168Z,7.30
2019-01-17T17:05:16.605Z,9.63
2019-01-17T17:07:45.027Z,11.40
2019-01-17T17:10:15.327Z,7.60
2019-01-17T17:12:43.755Z,6.57
2019-01-17T17:15:12.304Z,8.90
2019-01-17T17:17:40.728Z,3.40
2019-01-17T17:20:17.728Z,7.67
2019-01-17T17:22:46.224Z,4.53
2019-01-17T17:25:14.640Z,5.47
2019-01-17T17:27:43.195Z,3.53
2019-01-17T17:30:19.683Z,4.47
2019-01-17T17:32:48.119Z,5.03
2019-01-17T17:35:16.579Z,2.90
2019-01-17T17:37:44.980Z,3.60
2019-01-17T17:40:25.035Z,3.37
2019-01-17T17:42:53.532Z,6.27
2019-01-17T17:45:22.025Z,2.07
2019-01-17T17:47:50.459Z,3.63
2019-01-17T17:50:20.667Z,6.03
2019-01-17T17:52:49.106Z,3.83
2019-01-17T17:55:18.541Z,5.93
2019-01-17T17:57:46.974Z,7.40
2019-01-17T18:00:20.112Z,7.43
2019-01-17T18:02:48.965Z,8.30
2019-01-17T18:05:17.447Z,5.03
2019-01-17T18:07:45.871Z,8.23
2019-01-17T18:10:17.593Z,7.80
2019-01-17T18:12:45.999Z,5.07
2019-01-17T18:15:19.367Z,4.40
2019-01-17T18:17:48.067Z,4.23
2019-01-17T18:20:17.326Z,5.47
2019-01-17T18:22:45.810Z,6.00
2019-01-17T18:25:14.281Z,4.30
2019-01-17T18:27:42.705Z,4.23
2019-01-17T18:30:16.154Z,3.03
2019-01-17T18:32:44.551Z,3.97
2019-01-17T18:35:13.304Z,3.53
2019-01-17T18:37:41.731Z,3.57
2019-01-17T18:40:15.639Z,3.00
2019-01-17T18:42:44.137Z,4.30
2019-01-17T18:45:20.596Z,2.60
2019-01-17T18:47:49.130Z,7.23
2019-01-17T18:50:20.508Z,4.50
2019-01-17T18:52:49.060Z,6.37
2019-01-17T18:55:17.623Z,3.23
2019-01-17T18:57:46.109Z,6.63
2019-01-17T19:00:22.972Z,6.53
2019-01-17T19:02:51.972Z,6.13
2019-01-17T19:05:20.722Z,6.63
2019-01-17T19:07:49.183Z,5.43
2019-01-17T19:10:18.934Z,9.00
2019-01-17T19:12:47.411Z,8.43
2019-01-17T19:15:21.267Z,10.83
2019-01-17T19:17:49.673Z,11.60
2019-01-17T19:20:19.970Z,10.03
2019-01-17T19:22:48.709Z,13.73
2019-01-17T19:25:17.287Z,6.53
2019-01-17T19:27:45.683Z,12.10
2019-01-17T19:30:22.565Z,9.53
2019-01-17T19:32:51.117Z,10.43
2019-01-17T19:35:19.603Z,10.00
2019-01-17T19:37:48.080Z,13.90
2019-01-17T19:40:18.919Z,12.97
2019-01-17T19:42:47.404Z,10.83
2019-01-17T19:45:16.231Z,13.13
2019-01-17T19:47:44.725Z,11.33
2019-01-17T19:50:33.401Z,11.33
2019-01-17T19:53:01.874Z,11.17
2019-01-17T19:55:30.303Z,9.77
2019-01-17T19:57:58.742Z,13.13
2019-01-17T20:00:27.206Z,11.30
2019-01-17T20:02:55.745Z,9.43
2019-01-17T20:05:32.140Z,11.07
2019-01-17T20:08:00.613Z,12.50
2019-01-17T20:10:33.475Z,12.33
2019-01-17T20:13:01.972Z,8.60
2019-01-17T20:15:30.384Z,8.53
2019-01-17T20:17:59.618Z,5.07
2019-01-17T20:20:31.816Z,6.47
2019-01-17T20:22:58.300Z,7.93
2019-01-17T20:25:26.719Z,4.93
2019-01-17T20:27:55.142Z,7.70
2019-01-17T20:30:28.427Z,5.63
2019-01-17T20:32:58.600Z,9.20
2019-01-17T20:35:27.065Z,5.83
2019-01-17T20:37:55.459Z,5.80
2019-01-17T20:40:24.943Z,7.03
2019-01-17T20:42:53.675Z,6.53
2019-01-17T20:45:22.468Z,5.80
2019-01-17T20:47:51.121Z,9.07
2019-01-17T20:50:24.825Z,8.77
2019-01-17T20:52:53.223Z,9.87
2019-01-17T20:55:21.712Z,7.80
2019-01-17T20:57:50.684Z,6.17
2019-01-17T21:00:41.365Z,14.23
2019-01-17T21:03:11.368Z,12.00
2019-01-17T21:05:39.796Z,11.20
2019-01-17T21:08:08.283Z,9.83
2019-01-17T21:10:36.695Z,7.57
2019-01-17T21:13:05.123Z,13.30
2019-01-17T21:15:33.551Z,8.63
2019-01-17T21:18:01.988Z,14.13
2019-01-17T21:20:30.419Z,10.97
2019-01-17T21:22:58.815Z,6.40
2019-01-17T21:25:27.240Z,9.73
2019-01-17T21:27:55.660Z,9.93
2019-01-17T21:30:25.628Z,12.53
2019-01-17T21:32:54.100Z,8.67
2019-01-17T21:35:22.614Z,8.23
2019-01-17T21:37:51.244Z,14.17
2019-01-17T21:40:21.218Z,8.67
2019-01-17T21:42:49.616Z,8.27
2019-01-17T21:45:18.862Z,10.93
2019-01-17T21:47:47.529Z,13.43
2019-01-17T21:50:19.016Z,12.10
2019-01-17T21:52:47.408Z,8.60
2019-01-17T21:55:15.827Z,10.07
2019-01-17T21:57:44.339Z,14.57
2019-01-17T22:00:29.562Z,9.30
2019-01-17T22:02:57.993Z,13.40
2019-01-17T22:05:26.392Z,7.73
2019-01-17T22:07:54.814Z,10.00
2019-01-17T22:10:23.605Z,12.30
2019-01-17T22:12:52.097Z,14.20
2019-01-17T22:15:25.227Z,9.17
2019-01-17T22:17:54.393Z,13.40
2019-01-17T22:20:22.965Z,10.97
2019-01-17T22:22:51.434Z,10.73
2019-01-17T22:25:20.912Z,12.23
2019-01-17T22:27:51.799Z,10.23
2019-01-17T22:30:25.947Z,9.17
2019-01-17T22:32:54.364Z,10.93
2019-01-17T22:35:22.927Z,13.43
2019-01-17T22:37:51.362Z,9.47
2019-01-17T22:40:19.928Z,14.80
2019-01-17T22:42:48.348Z,9.30
2019-01-17T22:45:28.632Z,12.73
2019-01-17T22:47:57.051Z,10.27
2019-01-17T22:50:25.535Z,11.97
2019-01-17T22:52:54.067Z,10.03
2019-01-17T22:55:22.746Z,9.03
2019-01-17T22:57:51.149Z,8.90
2019-01-17T23:00:50.864Z,11.33
2019-01-17T23:03:21.877Z,5.70
2019-01-17T23:05:50.359Z,7.83
2019-01-17T23:08:18.746Z,8.33
2019-01-17T23:10:47.409Z,6.10
2019-01-17T23:13:15.891Z,8.73
2019-01-17T23:15:44.432Z,8.97
2019-01-17T23:18:12.866Z,10.93
2019-01-17T23:20:41.270Z,6.63
2019-01-17T23:23:10.759Z,7.50
2019-01-17T23:25:39.173Z,9.13
2019-01-17T23:28:07.575Z,9.50
2019-01-17T23:30:36.239Z,9.63
2019-01-17T23:33:04.807Z,8.13
2019-01-17T23:35:33.299Z,7.10
2019-01-17T23:38:01.735Z,9.10
2019-01-17T23:40:30.215Z,12.07
2019-01-17T23:42:58.644Z,7.40
2019-01-17T23:45:27.039Z,8.57
2019-01-17T23:47:55.471Z,6.53
2019-01-17T23:50:23.886Z,6.40
2019-01-17T23:52:52.316Z,9.73
2019-01-17T23:55:20.744Z,9.20
2019-01-17T23:57:49.152Z,8.07
